sensor_id;sensor_type;location;lat;lon;timestamp;temperature;humidity
43673;DHT22;41723;49.326;8.430;2023-07-31T00:01:55;19.40;99.40
43673;DHT22;41723;49.326;8.430;2023-07-31T00:04:21;19.40;99.40
43673;DHT22;41723;49.326;8.430;2023-07-31T00:06:46;19.30;99.20
43673;DHT22;41723;49.326;8.430;2023-07-31T00:09:12;19.30;99.60
43673;DHT22;41723;49.326;8.430;2023-07-31T00:11:37;19.30;99.50
43673;DHT22;41723;49.326;8.430;2023-07-31T00:14:03;19.20;99.70
43673;DHT22;41723;49.326;8.430;2023-07-31T00:16:29;19.20;99.70
43673;DHT22;41723;49.326;8.430;2023-07-31T00:18:54;19.20;99.80
43673;DHT22;41723;49.326;8.430;2023-07-31T00:21:20;19.10;99.90
43673;DHT22;41723;49.326;8.430;2023-07-31T00:23:46;19.10;99.90
43673;DHT22;41723;49.326;8.430;2023-07-31T00:26:11;19.10;99.90
43673;DHT22;41723;49.326;8.430;2023-07-31T00:28:37;19.10;99.90
43673;DHT22;41723;49.326;8.430;2023-07-31T00:31:02;19.10;99.90
43673;DHT22;41723;49.326;8.430;2023-07-31T00:33:31;19.10;99.90
43673;DHT22;41723;49.326;8.430;2023-07-31T00:35:57;19.10;99.90
43673;DHT22;41723;49.326;8.430;2023-07-31T00:38:22;19.00;99.90
43673;DHT22;41723;49.326;8.430;2023-07-31T00:40:48;18.90;99.90
43673;DHT22;41723;49.326;8.430;2023-07-31T00:43:13;19.00;99.90
43673;DHT22;41723;49.326;8.430;2023-07-31T00:45:40;18.90;99.90
43673;DHT22;41723;49.326;8.430;2023-07-31T00:48:06;19.00;99.90
43673;DHT22;41723;49.326;8.430;2023-07-31T00:50:31;19.00;99.90
43673;DHT22;41723;49.326;8.430;2023-07-31T00:52:58;19.00;99.90
43673;DHT22;41723;49.326;8.430;2023-07-31T00:55:24;19.00;99.90
43673;DHT22;41723;49.326;8.430;2023-07-31T00:57:50;19.00;99.90
43673;DHT22;41723;49.326;8.430;2023-07-31T01:00:17;18.90;99.90
43673;DHT22;41723;49.326;8.430;2023-07-31T01:02:43;19.00;99.90
43673;DHT22;41723;49.326;8.430;2023-07-31T01:05:09;18.90;99.90
43673;DHT22;41723;49.326;8.430;2023-07-31T01:12:32;18.90;99.90
43673;DHT22;41723;49.326;8.430;2023-07-31T01:15:04;18.80;99.90
43673;DHT22;41723;49.326;8.430;2023-07-31T01:17:30;18.80;99.90
43673;DHT22;41723;49.326;8.430;2023-07-31T01:19:57;18.80;99.90
43673;DHT22;41723;49.326;8.430;2023-07-31T01:27:49;18.80;99.90
43673;DHT22;41723;49.326;8.430;2023-07-31T01:30:18;18.70;99.90
43673;DHT22;41723;49.326;8.430;2023-07-31T01:32:47;18.80;99.90
43673;DHT22;41723;49.326;8.430;2023-07-31T01:35:14;18.80;99.90
43673;DHT22;41723;49.326;8.430;2023-07-31T01:37:40;18.80;99.90
43673;DHT22;41723;49.326;8.430;2023-07-31T01:40:06;18.80;99.70
43673;DHT22;41723;49.326;8.430;2023-07-31T01:42:32;18.80;99.80
43673;DHT22;41723;49.326;8.430;2023-07-31T01:44:57;18.80;99.80
43673;DHT22;41723;49.326;8.430;2023-07-31T01:47:23;18.80;99.70
43673;DHT22;41723;49.326;8.430;2023-07-31T01:49:49;18.80;99.60
43673;DHT22;41723;49.326;8.430;2023-07-31T01:52:15;18.80;99.60
43673;DHT22;41723;49.326;8.430;2023-07-31T01:54:41;18.80;99.70
43673;DHT22;41723;49.326;8.430;2023-07-31T01:57:07;18.90;99.90
43673;DHT22;41723;49.326;8.430;2023-07-31T01:59:33;18.80;99.90
43673;DHT22;41723;49.326;8.430;2023-07-31T02:01:59;18.80;99.90
43673;DHT22;41723;49.326;8.430;2023-07-31T02:04:24;18.70;99.90
43673;DHT22;41723;49.326;8.430;2023-07-31T02:06:50;18.70;99.90
43673;DHT22;41723;49.326;8.430;2023-07-31T02:09:15;18.70;99.90
43673;DHT22;41723;49.326;8.430;2023-07-31T02:11:41;18.70;99.90
43673;DHT22;41723;49.326;8.430;2023-07-31T02:14:07;18.70;99.90
43673;DHT22;41723;49.326;8.430;2023-07-31T02:16:32;18.70;99.90
43673;DHT22;41723;49.326;8.430;2023-07-31T02:19:00;18.70;99.90
43673;DHT22;41723;49.326;8.430;2023-07-31T02:21:25;18.60;99.90
43673;DHT22;41723;49.326;8.430;2023-07-31T02:23:51;18.60;99.90
43673;DHT22;41723;49.326;8.430;2023-07-31T02:26:18;18.50;99.90
43673;DHT22;41723;49.326;8.430;2023-07-31T02:28:44;18.50;99.90
43673;DHT22;41723;49.326;8.430;2023-07-31T02:31:11;18.50;99.90
43673;DHT22;41723;49.326;8.430;2023-07-31T02:33:36;18.40;99.90
43673;DHT22;41723;49.326;8.430;2023-07-31T02:36:02;18.50;99.90
43673;DHT22;41723;49.326;8.430;2023-07-31T02:38:27;18.50;99.90
43673;DHT22;41723;49.326;8.430;2023-07-31T02:40:53;18.40;99.90
43673;DHT22;41723;49.326;8.430;2023-07-31T02:43:19;18.40;99.90
43673;DHT22;41723;49.326;8.430;2023-07-31T02:45:45;18.40;99.90
43673;DHT22;41723;49.326;8.430;2023-07-31T02:48:11;18.40;99.90
43673;DHT22;41723;49.326;8.430;2023-07-31T02:50:37;18.40;99.90
43673;DHT22;41723;49.326;8.430;2023-07-31T02:53:02;18.40;99.90
43673;DHT22;41723;49.326;8.430;2023-07-31T02:55:28;18.40;99.90
43673;DHT22;41723;49.326;8.430;2023-07-31T02:57:53;18.40;99.90
43673;DHT22;41723;49.326;8.430;2023-07-31T03:00:20;18.40;99.90
43673;DHT22;41723;49.326;8.430;2023-07-31T03:02:45;18.40;99.90
43673;DHT22;41723;49.326;8.430;2023-07-31T03:05:11;18.40;99.90
43673;DHT22;41723;49.326;8.430;2023-07-31T03:07:37;18.40;99.90
43673;DHT22;41723;49.326;8.430;2023-07-31T03:10:02;18.30;99.90
43673;DHT22;41723;49.326;8.430;2023-07-31T03:12:28;18.30;99.90
43673;DHT22;41723;49.326;8.430;2023-07-31T03:14:54;18.20;99.90
43673;DHT22;41723;49.326;8.430;2023-07-31T03:17:19;18.30;99.90
43673;DHT22;41723;49.326;8.430;2023-07-31T03:19:45;18.30;99.90
43673;DHT22;41723;49.326;8.430;2023-07-31T03:22:10;18.20;99.90
43673;DHT22;41723;49.326;8.430;2023-07-31T03:24:36;18.20;99.90
43673;DHT22;41723;49.326;8.430;2023-07-31T03:27:01;18.20;99.90
43673;DHT22;41723;49.326;8.430;2023-07-31T03:29:27;18.20;99.90
43673;DHT22;41723;49.326;8.430;2023-07-31T03:31:53;18.20;99.90
43673;DHT22;41723;49.326;8.430;2023-07-31T03:34:18;18.20;99.90
43673;DHT22;41723;49.326;8.430;2023-07-31T03:36:44;18.20;99.90
43673;DHT22;41723;49.326;8.430;2023-07-31T03:39:10;18.10;99.90
43673;DHT22;41723;49.326;8.430;2023-07-31T03:41:35;18.20;99.90
43673;DHT22;41723;49.326;8.430;2023-07-31T03:44:01;18.10;99.90
43673;DHT22;41723;49.326;8.430;2023-07-31T03:46:26;18.10;99.90
43673;DHT22;41723;49.326;8.430;2023-07-31T03:48:53;18.10;99.90
43673;DHT22;41723;49.326;8.430;2023-07-31T03:51:18;18.20;99.90
43673;DHT22;41723;49.326;8.430;2023-07-31T03:53:44;18.10;99.90
43673;DHT22;41723;49.326;8.430;2023-07-31T03:56:10;18.10;99.90
43673;DHT22;41723;49.326;8.430;2023-07-31T03:58:36;18.00;99.90
43673;DHT22;41723;49.326;8.430;2023-07-31T04:01:02;18.00;99.90
43673;DHT22;41723;49.326;8.430;2023-07-31T04:03:28;18.00;99.90
43673;DHT22;41723;49.326;8.430;2023-07-31T04:05:54;18.00;99.90
43673;DHT22;41723;49.326;8.430;2023-07-31T04:08:21;18.00;99.90
43673;DHT22;41723;49.326;8.430;2023-07-31T04:10:47;18.00;99.90
43673;DHT22;41723;49.326;8.430;2023-07-31T04:13:12;18.00;99.90
43673;DHT22;41723;49.326;8.430;2023-07-31T04:15:38;18.10;99.90
43673;DHT22;41723;49.326;8.430;2023-07-31T04:18:04;18.10;99.90
43673;DHT22;41723;49.326;8.430;2023-07-31T04:20:30;18.10;99.90
43673;DHT22;41723;49.326;8.430;2023-07-31T04:22:55;18.10;99.90
43673;DHT22;41723;49.326;8.430;2023-07-31T04:25:21;18.00;99.90
43673;DHT22;41723;49.326;8.430;2023-07-31T04:27:47;18.00;99.90
43673;DHT22;41723;49.326;8.430;2023-07-31T04:30:13;18.00;99.90
43673;DHT22;41723;49.326;8.430;2023-07-31T04:32:38;18.00;99.90
43673;DHT22;41723;49.326;8.430;2023-07-31T04:35:04;17.90;99.90
43673;DHT22;41723;49.326;8.430;2023-07-31T04:37:30;17.90;99.90
43673;DHT22;41723;49.326;8.430;2023-07-31T04:39:55;18.00;99.90
43673;DHT22;41723;49.326;8.430;2023-07-31T04:42:21;18.00;99.90
43673;DHT22;41723;49.326;8.430;2023-07-31T04:44:46;18.00;99.90
43673;DHT22;41723;49.326;8.430;2023-07-31T04:47:12;18.00;99.90
43673;DHT22;41723;49.326;8.430;2023-07-31T04:49:37;18.00;99.90
43673;DHT22;41723;49.326;8.430;2023-07-31T04:52:03;18.00;99.90
43673;DHT22;41723;49.326;8.430;2023-07-31T04:54:29;18.00;99.90
43673;DHT22;41723;49.326;8.430;2023-07-31T04:56:54;18.00;99.90
43673;DHT22;41723;49.326;8.430;2023-07-31T04:59:20;17.90;99.90
43673;DHT22;41723;49.326;8.430;2023-07-31T05:01:46;18.00;99.90
43673;DHT22;41723;49.326;8.430;2023-07-31T05:04:14;18.00;99.90
43673;DHT22;41723;49.326;8.430;2023-07-31T05:06:40;18.00;99.90
43673;DHT22;41723;49.326;8.430;2023-07-31T05:09:06;17.90;99.90
43673;DHT22;41723;49.326;8.430;2023-07-31T05:11:32;18.00;99.90
43673;DHT22;41723;49.326;8.430;2023-07-31T05:13:57;17.90;99.90
43673;DHT22;41723;49.326;8.430;2023-07-31T05:16:23;17.90;99.90
43673;DHT22;41723;49.326;8.430;2023-07-31T05:18:49;18.00;99.90
43673;DHT22;41723;49.326;8.430;2023-07-31T05:21:14;18.00;99.90
43673;DHT22;41723;49.326;8.430;2023-07-31T05:23:40;18.00;99.90
43673;DHT22;41723;49.326;8.430;2023-07-31T05:26:06;18.00;99.90
43673;DHT22;41723;49.326;8.430;2023-07-31T05:28:33;18.00;99.90
43673;DHT22;41723;49.326;8.430;2023-07-31T05:30:59;18.00;99.90
43673;DHT22;41723;49.326;8.430;2023-07-31T05:33:25;18.00;99.90
43673;DHT22;41723;49.326;8.430;2023-07-31T05:35:50;18.10;99.90
43673;DHT22;41723;49.326;8.430;2023-07-31T05:38:16;18.10;99.90
43673;DHT22;41723;49.326;8.430;2023-07-31T05:40:42;18.10;99.90
43673;DHT22;41723;49.326;8.430;2023-07-31T05:43:08;18.10;99.90
43673;DHT22;41723;49.326;8.430;2023-07-31T05:45:33;18.10;99.90
43673;DHT22;41723;49.326;8.430;2023-07-31T05:47:59;18.20;99.90
43673;DHT22;41723;49.326;8.430;2023-07-31T05:50:25;18.20;99.90
43673;DHT22;41723;49.326;8.430;2023-07-31T05:52:50;18.20;99.90
43673;DHT22;41723;49.326;8.430;2023-07-31T05:55:16;18.20;99.90
43673;DHT22;41723;49.326;8.430;2023-07-31T05:57:42;18.20;99.90
43673;DHT22;41723;49.326;8.430;2023-07-31T06:00:08;18.20;99.90
43673;DHT22;41723;49.326;8.430;2023-07-31T06:02:33;18.20;99.90
43673;DHT22;41723;49.326;8.430;2023-07-31T06:05:02;18.30;99.90
43673;DHT22;41723;49.326;8.430;2023-07-31T06:07:29;18.30;99.90
43673;DHT22;41723;49.326;8.430;2023-07-31T06:09:55;18.30;99.90
43673;DHT22;41723;49.326;8.430;2023-07-31T06:12:20;18.30;99.90
43673;DHT22;41723;49.326;8.430;2023-07-31T06:14:46;18.30;99.90
43673;DHT22;41723;49.326;8.430;2023-07-31T06:17:12;18.30;99.90
43673;DHT22;41723;49.326;8.430;2023-07-31T06:19:37;18.40;99.90
43673;DHT22;41723;49.326;8.430;2023-07-31T06:22:03;18.40;99.90
43673;DHT22;41723;49.326;8.430;2023-07-31T06:24:28;18.50;99.90
43673;DHT22;41723;49.326;8.430;2023-07-31T06:26:55;18.50;99.90
43673;DHT22;41723;49.326;8.430;2023-07-31T06:29:20;18.60;99.90
43673;DHT22;41723;49.326;8.430;2023-07-31T06:31:46;18.70;99.90
43673;DHT22;41723;49.326;8.430;2023-07-31T06:34:11;18.70;99.90
43673;DHT22;41723;49.326;8.430;2023-07-31T06:36:37;18.70;99.90
43673;DHT22;41723;49.326;8.430;2023-07-31T06:39:03;18.70;99.90
43673;DHT22;41723;49.326;8.430;2023-07-31T06:41:29;18.70;99.90
43673;DHT22;41723;49.326;8.430;2023-07-31T06:43:54;18.70;99.90
43673;DHT22;41723;49.326;8.430;2023-07-31T06:46:20;18.70;99.90
43673;DHT22;41723;49.326;8.430;2023-07-31T06:48:46;18.70;99.90
43673;DHT22;41723;49.326;8.430;2023-07-31T06:51:11;18.70;99.90
43673;DHT22;41723;49.326;8.430;2023-07-31T06:53:37;18.60;99.90
43673;DHT22;41723;49.326;8.430;2023-07-31T06:56:02;18.70;99.90
43673;DHT22;41723;49.326;8.430;2023-07-31T06:58:29;18.70;99.90
43673;DHT22;41723;49.326;8.430;2023-07-31T07:00:54;18.80;99.90
43673;DHT22;41723;49.326;8.430;2023-07-31T07:03:20;18.70;99.90
43673;DHT22;41723;49.326;8.430;2023-07-31T07:05:45;18.80;99.90
43673;DHT22;41723;49.326;8.430;2023-07-31T07:08:11;18.90;99.90
43673;DHT22;41723;49.326;8.430;2023-07-31T07:10:37;18.90;99.90
43673;DHT22;41723;49.326;8.430;2023-07-31T07:13:02;18.90;99.90
43673;DHT22;41723;49.326;8.430;2023-07-31T07:15:28;19.00;99.90
43673;DHT22;41723;49.326;8.430;2023-07-31T07:17:54;19.00;99.90
43673;DHT22;41723;49.326;8.430;2023-07-31T07:20:19;19.10;99.90
43673;DHT22;41723;49.326;8.430;2023-07-31T07:22:45;19.20;99.90
43673;DHT22;41723;49.326;8.430;2023-07-31T07:25:11;19.30;99.90
43673;DHT22;41723;49.326;8.430;2023-07-31T07:27:36;19.40;99.90
43673;DHT22;41723;49.326;8.430;2023-07-31T07:30:02;19.50;99.90
43673;DHT22;41723;49.326;8.430;2023-07-31T07:32:29;19.50;99.90
43673;DHT22;41723;49.326;8.430;2023-07-31T07:34:55;19.50;99.90
43673;DHT22;41723;49.326;8.430;2023-07-31T07:37:20;19.60;99.90
43673;DHT22;41723;49.326;8.430;2023-07-31T07:39:46;19.50;99.90
43673;DHT22;41723;49.326;8.430;2023-07-31T07:42:11;19.50;99.90
43673;DHT22;41723;49.326;8.430;2023-07-31T07:44:37;19.60;99.90
43673;DHT22;41723;49.326;8.430;2023-07-31T07:47:03;19.70;99.90
43673;DHT22;41723;49.326;8.430;2023-07-31T07:49:28;19.70;99.90
43673;DHT22;41723;49.326;8.430;2023-07-31T07:51:54;19.70;99.90
43673;DHT22;41723;49.326;8.430;2023-07-31T07:54:19;19.90;99.90
43673;DHT22;41723;49.326;8.430;2023-07-31T07:56:48;19.90;99.90
43673;DHT22;41723;49.326;8.430;2023-07-31T07:59:15;20.00;99.90
43673;DHT22;41723;49.326;8.430;2023-07-31T08:01:40;20.00;99.90
43673;DHT22;41723;49.326;8.430;2023-07-31T08:04:06;20.10;99.90
43673;DHT22;41723;49.326;8.430;2023-07-31T08:06:31;20.10;99.90
43673;DHT22;41723;49.326;8.430;2023-07-31T08:08:57;20.10;99.90
43673;DHT22;41723;49.326;8.430;2023-07-31T08:11:23;20.20;99.90
43673;DHT22;41723;49.326;8.430;2023-07-31T08:13:49;20.10;99.90
43673;DHT22;41723;49.326;8.430;2023-07-31T08:16:15;20.10;99.90
43673;DHT22;41723;49.326;8.430;2023-07-31T08:18:40;20.10;99.90
43673;DHT22;41723;49.326;8.430;2023-07-31T08:21:08;20.10;99.90
43673;DHT22;41723;49.326;8.430;2023-07-31T08:23:33;20.10;99.90
43673;DHT22;41723;49.326;8.430;2023-07-31T08:25:59;19.90;99.90
43673;DHT22;41723;49.326;8.430;2023-07-31T08:28:25;20.00;99.90
43673;DHT22;41723;49.326;8.430;2023-07-31T08:30:50;20.10;99.90
43673;DHT22;41723;49.326;8.430;2023-07-31T08:33:16;20.10;99.90
43673;DHT22;41723;49.326;8.430;2023-07-31T08:35:41;20.20;99.90
43673;DHT22;41723;49.326;8.430;2023-07-31T08:38:07;20.10;99.80
43673;DHT22;41723;49.326;8.430;2023-07-31T08:40:35;20.20;99.90
43673;DHT22;41723;49.326;8.430;2023-07-31T08:43:01;20.10;99.80
43673;DHT22;41723;49.326;8.430;2023-07-31T08:45:27;20.20;99.90
43673;DHT22;41723;49.326;8.430;2023-07-31T08:47:53;20.20;99.90
43673;DHT22;41723;49.326;8.430;2023-07-31T08:50:20;20.30;99.80
43673;DHT22;41723;49.326;8.430;2023-07-31T08:52:47;20.30;99.70
43673;DHT22;41723;49.326;8.430;2023-07-31T08:55:13;20.30;99.90
43673;DHT22;41723;49.326;8.430;2023-07-31T08:57:39;20.30;99.70
43673;DHT22;41723;49.326;8.430;2023-07-31T09:00:05;20.30;99.60
43673;DHT22;41723;49.326;8.430;2023-07-31T09:02:34;20.30;99.60
43673;DHT22;41723;49.326;8.430;2023-07-31T09:05:01;20.40;99.80
43673;DHT22;41723;49.326;8.430;2023-07-31T09:07:28;20.40;99.50
43673;DHT22;41723;49.326;8.430;2023-07-31T09:09:54;20.40;99.60
43673;DHT22;41723;49.326;8.430;2023-07-31T09:12:20;20.50;99.70
43673;DHT22;41723;49.326;8.430;2023-07-31T09:14:45;20.60;99.30
43673;DHT22;41723;49.326;8.430;2023-07-31T09:17:12;20.70;99.30
43673;DHT22;41723;49.326;8.430;2023-07-31T09:19:38;20.70;99.10
43673;DHT22;41723;49.326;8.430;2023-07-31T09:22:07;20.80;99.40
43673;DHT22;41723;49.326;8.430;2023-07-31T09:24:33;21.00;99.10
43673;DHT22;41723;49.326;8.430;2023-07-31T09:26:59;21.10;98.90
43673;DHT22;41723;49.326;8.430;2023-07-31T09:29:25;21.20;98.70
43673;DHT22;41723;49.326;8.430;2023-07-31T09:31:52;21.20;98.70
43673;DHT22;41723;49.326;8.430;2023-07-31T09:34:18;21.20;98.70
43673;DHT22;41723;49.326;8.430;2023-07-31T09:36:44;21.30;98.90
43673;DHT22;41723;49.326;8.430;2023-07-31T09:39:11;21.40;98.60
43673;DHT22;41723;49.326;8.430;2023-07-31T09:41:40;21.40;98.40
43673;DHT22;41723;49.326;8.430;2023-07-31T09:44:06;21.30;98.30
43673;DHT22;41723;49.326;8.430;2023-07-31T09:46:34;21.30;98.10
43673;DHT22;41723;49.326;8.430;2023-07-31T09:49:07;21.40;97.80
43673;DHT22;41723;49.326;8.430;2023-07-31T09:51:33;21.40;97.70
43673;DHT22;41723;49.326;8.430;2023-07-31T09:54:04;21.40;98.00
43673;DHT22;41723;49.326;8.430;2023-07-31T09:56:29;21.50;98.00
43673;DHT22;41723;49.326;8.430;2023-07-31T09:58:56;21.70;97.70
43673;DHT22;41723;49.326;8.430;2023-07-31T10:01:21;21.80;97.20
43673;DHT22;41723;49.326;8.430;2023-07-31T10:03:47;21.80;97.50
43673;DHT22;41723;49.326;8.430;2023-07-31T10:06:13;21.80;97.20
43673;DHT22;41723;49.326;8.430;2023-07-31T10:08:41;21.80;97.70
43673;DHT22;41723;49.326;8.430;2023-07-31T10:11:08;21.80;97.30
43673;DHT22;41723;49.326;8.430;2023-07-31T10:13:34;21.60;97.70
43673;DHT22;41723;49.326;8.430;2023-07-31T10:16:00;21.60;97.80
43673;DHT22;41723;49.326;8.430;2023-07-31T10:18:26;21.60;97.60
43673;DHT22;41723;49.326;8.430;2023-07-31T10:20:53;21.70;97.80
43673;DHT22;41723;49.326;8.430;2023-07-31T10:23:20;21.80;97.50
43673;DHT22;41723;49.326;8.430;2023-07-31T10:25:45;21.90;97.70
43673;DHT22;41723;49.326;8.430;2023-07-31T10:28:12;22.00;97.30
43673;DHT22;41723;49.326;8.430;2023-07-31T10:30:38;22.00;97.30
43673;DHT22;41723;49.326;8.430;2023-07-31T10:33:05;22.00;97.30
43673;DHT22;41723;49.326;8.430;2023-07-31T10:35:30;22.10;97.10
43673;DHT22;41723;49.326;8.430;2023-07-31T10:37:56;22.30;97.10
43673;DHT22;41723;49.326;8.430;2023-07-31T10:40:34;22.60;96.90
43673;DHT22;41723;49.326;8.430;2023-07-31T10:42:59;22.60;96.60
43673;DHT22;41723;49.326;8.430;2023-07-31T10:47:57;22.40;96.60
43673;DHT22;41723;49.326;8.430;2023-07-31T10:50:23;22.30;96.60
43673;DHT22;41723;49.326;8.430;2023-07-31T10:52:53;22.10;96.80
43673;DHT22;41723;49.326;8.430;2023-07-31T10:57:51;21.90;97.20
43673;DHT22;41723;49.326;8.430;2023-07-31T11:00:18;21.90;97.00
43673;DHT22;41723;49.326;8.430;2023-07-31T11:02:46;21.90;97.00
43673;DHT22;41723;49.326;8.430;2023-07-31T11:05:21;21.90;97.30
43673;DHT22;41723;49.326;8.430;2023-07-31T11:07:48;21.90;97.10
43673;DHT22;41723;49.326;8.430;2023-07-31T11:10:17;21.90;97.30
43673;DHT22;41723;49.326;8.430;2023-07-31T11:12:44;21.90;97.10
43673;DHT22;41723;49.326;8.430;2023-07-31T11:15:10;22.00;97.20
43673;DHT22;41723;49.326;8.430;2023-07-31T11:17:40;21.90;97.20
43673;DHT22;41723;49.326;8.430;2023-07-31T11:20:06;22.00;97.40
43673;DHT22;41723;49.326;8.430;2023-07-31T11:22:34;22.00;97.20
43673;DHT22;41723;49.326;8.430;2023-07-31T11:25:00;21.90;97.00
43673;DHT22;41723;49.326;8.430;2023-07-31T11:27:29;21.90;97.20
43673;DHT22;41723;49.326;8.430;2023-07-31T11:30:02;21.90;97.30
43673;DHT22;41723;49.326;8.430;2023-07-31T11:32:27;21.80;97.40
43673;DHT22;41723;49.326;8.430;2023-07-31T11:34:53;21.90;97.90
43673;DHT22;41723;49.326;8.430;2023-07-31T11:37:19;21.90;97.80
43673;DHT22;41723;49.326;8.430;2023-07-31T11:39:58;21.90;97.20
43673;DHT22;41723;49.326;8.430;2023-07-31T11:42:23;22.00;97.30
43673;DHT22;41723;49.326;8.430;2023-07-31T11:44:49;22.00;97.60
43673;DHT22;41723;49.326;8.430;2023-07-31T11:47:14;22.00;97.30
43673;DHT22;41723;49.326;8.430;2023-07-31T11:49:41;22.00;97.20
43673;DHT22;41723;49.326;8.430;2023-07-31T11:52:07;22.00;97.60
43673;DHT22;41723;49.326;8.430;2023-07-31T11:54:33;22.00;97.50
43673;DHT22;41723;49.326;8.430;2023-07-31T11:56:59;22.00;97.60
43673;DHT22;41723;49.326;8.430;2023-07-31T11:59:26;22.00;97.60
43673;DHT22;41723;49.326;8.430;2023-07-31T12:01:52;22.10;97.60
43673;DHT22;41723;49.326;8.430;2023-07-31T12:04:19;22.10;97.80
43673;DHT22;41723;49.326;8.430;2023-07-31T12:06:45;22.10;97.30
43673;DHT22;41723;49.326;8.430;2023-07-31T12:09:11;22.10;97.00
43673;DHT22;41723;49.326;8.430;2023-07-31T12:11:43;22.20;96.70
43673;DHT22;41723;49.326;8.430;2023-07-31T12:14:19;22.20;96.50
43673;DHT22;41723;49.326;8.430;2023-07-31T12:16:44;22.20;96.70
43673;DHT22;41723;49.326;8.430;2023-07-31T12:19:10;22.30;96.50
43673;DHT22;41723;49.326;8.430;2023-07-31T12:21:36;22.30;96.40
43673;DHT22;41723;49.326;8.430;2023-07-31T12:24:03;22.30;96.40
43673;DHT22;41723;49.326;8.430;2023-07-31T12:26:33;22.30;96.40
43673;DHT22;41723;49.326;8.430;2023-07-31T12:28:59;22.30;96.30
43673;DHT22;41723;49.326;8.430;2023-07-31T12:31:25;22.30;96.60
43673;DHT22;41723;49.326;8.430;2023-07-31T12:33:52;22.30;96.40
43673;DHT22;41723;49.326;8.430;2023-07-31T12:36:22;22.30;96.50
43673;DHT22;41723;49.326;8.430;2023-07-31T12:38:47;22.30;96.60
43673;DHT22;41723;49.326;8.430;2023-07-31T12:41:14;22.40;96.80
43673;DHT22;41723;49.326;8.430;2023-07-31T12:43:41;22.30;96.60
43673;DHT22;41723;49.326;8.430;2023-07-31T12:46:07;22.30;96.70
43673;DHT22;41723;49.326;8.430;2023-07-31T12:48:36;22.30;96.60
43673;DHT22;41723;49.326;8.430;2023-07-31T12:51:02;22.30;96.90
43673;DHT22;41723;49.326;8.430;2023-07-31T12:53:28;22.30;97.00
43673;DHT22;41723;49.326;8.430;2023-07-31T12:55:54;22.30;96.80
43673;DHT22;41723;49.326;8.430;2023-07-31T12:58:19;22.30;97.00
43673;DHT22;41723;49.326;8.430;2023-07-31T13:00:45;22.30;97.00
43673;DHT22;41723;49.326;8.430;2023-07-31T13:03:10;22.30;96.90
43673;DHT22;41723;49.326;8.430;2023-07-31T13:05:36;22.20;96.80
43673;DHT22;41723;49.326;8.430;2023-07-31T13:08:02;22.30;96.80
43673;DHT22;41723;49.326;8.430;2023-07-31T13:10:27;22.30;97.00
43673;DHT22;41723;49.326;8.430;2023-07-31T13:12:54;22.30;97.10
43673;DHT22;41723;49.326;8.430;2023-07-31T13:15:19;22.30;97.20
43673;DHT22;41723;49.326;8.430;2023-07-31T13:17:45;22.30;97.20
43673;DHT22;41723;49.326;8.430;2023-07-31T13:20:11;22.30;97.10
43673;DHT22;41723;49.326;8.430;2023-07-31T13:22:36;22.20;97.10
43673;DHT22;41723;49.326;8.430;2023-07-31T13:25:02;22.20;97.20
43673;DHT22;41723;49.326;8.430;2023-07-31T13:27:28;22.20;97.20
43673;DHT22;41723;49.326;8.430;2023-07-31T13:29:54;22.20;97.20
43673;DHT22;41723;49.326;8.430;2023-07-31T13:32:20;22.20;97.30
43673;DHT22;41723;49.326;8.430;2023-07-31T13:34:46;22.20;97.20
43673;DHT22;41723;49.326;8.430;2023-07-31T13:37:12;22.20;97.30
43673;DHT22;41723;49.326;8.430;2023-07-31T13:39:38;22.20;97.40
43673;DHT22;41723;49.326;8.430;2023-07-31T13:42:04;22.20;97.60
43673;DHT22;41723;49.326;8.430;2023-07-31T13:44:32;22.30;97.40
43673;DHT22;41723;49.326;8.430;2023-07-31T13:46:57;22.30;97.40
43673;DHT22;41723;49.326;8.430;2023-07-31T13:49:23;22.30;97.30
43673;DHT22;41723;49.326;8.430;2023-07-31T13:51:48;22.30;97.70
43673;DHT22;41723;49.326;8.430;2023-07-31T13:54:14;22.30;97.20
43673;DHT22;41723;49.326;8.430;2023-07-31T13:56:41;22.20;97.20
43673;DHT22;41723;49.326;8.430;2023-07-31T13:59:08;22.30;97.10
43673;DHT22;41723;49.326;8.430;2023-07-31T14:01:33;22.20;97.20
43673;DHT22;41723;49.326;8.430;2023-07-31T14:03:59;22.30;97.30
43673;DHT22;41723;49.326;8.430;2023-07-31T14:06:25;22.20;97.40
43673;DHT22;41723;49.326;8.430;2023-07-31T14:08:50;22.20;97.50
43673;DHT22;41723;49.326;8.430;2023-07-31T14:11:16;22.20;97.40
43673;DHT22;41723;49.326;8.430;2023-07-31T14:13:41;22.20;97.50
43673;DHT22;41723;49.326;8.430;2023-07-31T14:16:07;22.30;97.50
43673;DHT22;41723;49.326;8.430;2023-07-31T14:18:33;22.20;97.70
43673;DHT22;41723;49.326;8.430;2023-07-31T14:20:58;22.20;98.00
43673;DHT22;41723;49.326;8.430;2023-07-31T14:23:24;22.20;97.90
43673;DHT22;41723;49.326;8.430;2023-07-31T14:25:49;22.30;98.00
43673;DHT22;41723;49.326;8.430;2023-07-31T14:28:15;22.30;98.10
43673;DHT22;41723;49.326;8.430;2023-07-31T14:30:40;22.30;98.20
43673;DHT22;41723;49.326;8.430;2023-07-31T14:33:06;22.30;98.30
43673;DHT22;41723;49.326;8.430;2023-07-31T14:35:32;22.30;98.20
43673;DHT22;41723;49.326;8.430;2023-07-31T14:37:57;22.30;97.80
43673;DHT22;41723;49.326;8.430;2023-07-31T14:40:23;22.30;97.70
43673;DHT22;41723;49.326;8.430;2023-07-31T14:42:48;22.30;97.80
43673;DHT22;41723;49.326;8.430;2023-07-31T14:45:14;22.30;97.80
43673;DHT22;41723;49.326;8.430;2023-07-31T14:47:40;22.30;97.70
43673;DHT22;41723;49.326;8.430;2023-07-31T14:50:05;22.30;97.90
43673;DHT22;41723;49.326;8.430;2023-07-31T14:52:31;22.40;98.10
43673;DHT22;41723;49.326;8.430;2023-07-31T14:54:57;22.40;98.00
43673;DHT22;41723;49.326;8.430;2023-07-31T14:57:22;22.50;98.30
43673;DHT22;41723;49.326;8.430;2023-07-31T14:59:48;22.60;98.00
43673;DHT22;41723;49.326;8.430;2023-07-31T15:02:14;22.70;97.60
43673;DHT22;41723;49.326;8.430;2023-07-31T15:04:40;22.70;97.50
43673;DHT22;41723;49.326;8.430;2023-07-31T15:07:05;22.70;97.90
43673;DHT22;41723;49.326;8.430;2023-07-31T15:09:31;22.80;97.80
43673;DHT22;41723;49.326;8.430;2023-07-31T15:11:57;22.80;97.60
43673;DHT22;41723;49.326;8.430;2023-07-31T15:14:23;22.80;97.60
43673;DHT22;41723;49.326;8.430;2023-07-31T15:16:49;22.80;98.00
43673;DHT22;41723;49.326;8.430;2023-07-31T15:19:14;22.80;98.00
43673;DHT22;41723;49.326;8.430;2023-07-31T15:21:40;22.80;97.80
43673;DHT22;41723;49.326;8.430;2023-07-31T15:24:05;22.80;97.50
43673;DHT22;41723;49.326;8.430;2023-07-31T15:26:31;22.70;97.50
43673;DHT22;41723;49.326;8.430;2023-07-31T15:29:00;22.70;97.20
43673;DHT22;41723;49.326;8.430;2023-07-31T15:31:27;22.70;97.50
43673;DHT22;41723;49.326;8.430;2023-07-31T15:33:53;22.70;97.60
43673;DHT22;41723;49.326;8.430;2023-07-31T15:36:18;22.70;97.60
43673;DHT22;41723;49.326;8.430;2023-07-31T15:38:44;22.70;97.70